Madison, MN

3:26 PM CST on January 26, 2015 (GMT -0600)
Madison-Lac Qui Parle County | Change Station
CLOSE
Current Station
Airport
Location: Madison,
Elevation: 1083 ft
Nearby Weather Stations

Elev 1083 ft 44.98 °N, 96.18 °W | Updated 12 minutes ago

Clear
Clear
46 °F
Feels Like 40 °F
N
17
Wind Variable Wind from NNW

Today
High -- | Low -- °F
--% Chance of Precip.
Yesterday
High -- | Low -- °F
Precip. -- in
7:51 AM 5:23 PM
Waxing Crescent, 47% visible
Pressure 29.88 in
Visibility 10.0 miles
Clouds Scattered Clouds 2800 ft
Windchill 40 °F
Dew Point 37 °F
Humidity 71%
Rainfall 0.00 in
Snow Depth Not available.
UV 1 out of 12
Pollen .10 out of 12
Air Quality Not available.
Flu Activity Not available.
METAR KDXX 262114Z AUTO 33015KT 10SM SCT028 08/03 A2988 RMK AO2

More Conditions Fewer Conditions

Pressure 29.88 in
Visibility 10.0 miles
Clouds Scattered Clouds 2800 ft
Windchill 40 °F
Dew Point 37 °F
Humidity 71%
Rainfall 0.00 in
Snow Depth Not available.
UV 1 out of 12
Pollen .10 out of 12
Air Quality Not available.
Flu Activity Not available.
METAR KDXX 262114Z AUTO 33015KT 10SM SCT028 08/03 A2988 RMK AO2

More Conditions Fewer Conditions

10-Day Weather Forecast

Almanac

Astronomy

Jan. 26, 2015 Rise Set
Actual Time
Civil Twilight
Nautical Twilight
Astronomical Twilight
Moon
Length of Visible Light
Length of Day
Tomorrow will be .
, % of the Moon is Illuminated

Today's Extremes

State Highs State Lows

Community

WunderPhotos

Upload Photos

1,790,364 photos uploaded!

WunderBlogs® & News

Nearby

Air Quality

  Air Quality AQ Index Pollutant
Not available.

Snow Depth

Station Depth Elevation

Earthquake Activity

City Distance Mag. Time & Date
Minimum magnitude displayed is 2.5.

Coastal Water Temperatures

Place Temperature

Nearby Weather Stations